createdAt,value
2023-05-05T00:02:20.123Z,14.96
2023-05-05T00:04:48.101Z,14.78
2023-05-05T00:07:16.028Z,14.77
2023-05-05T00:09:44.660Z,14.72
2023-05-05T00:12:12.604Z,14.78
2023-05-05T00:14:40.593Z,14.81
2023-05-05T00:17:08.609Z,14.82
2023-05-05T00:19:38.224Z,14.75
2023-05-05T00:22:06.193Z,14.72
2023-05-05T00:24:34.225Z,14.65
2023-05-05T00:27:03.549Z,14.69
2023-05-05T00:29:31.721Z,14.64
2023-05-05T00:31:59.654Z,14.77
2023-05-05T00:34:27.633Z,14.74
2023-05-05T00:36:56.980Z,14.88
2023-05-05T00:39:25.436Z,14.97
2023-05-05T00:41:53.418Z,15.16
2023-05-05T00:44:37.385Z,15.10
2023-05-05T00:47:05.167Z,15.18
2023-05-05T00:49:34.238Z,15.17
2023-05-05T00:52:04.834Z,15.17
2023-05-05T00:54:32.882Z,15.13
2023-05-05T00:57:02.250Z,14.99
2023-05-05T00:59:31.745Z,14.98
2023-05-05T01:01:59.972Z,15.17
2023-05-05T01:04:28.041Z,14.87
2023-05-05T01:07:09.171Z,14.91
2023-05-05T01:09:43.085Z,15.13
2023-05-05T01:12:19.624Z,15.28
2023-05-05T01:14:54.459Z,15.32
2023-05-05T01:17:30.222Z,15.28
2023-05-05T01:20:04.378Z,15.30
2023-05-05T01:22:40.083Z,15.36
2023-05-05T01:25:36.540Z,15.26
2023-05-05T01:28:26.497Z,15.13
2023-05-05T01:31:19.561Z,15.16
2023-05-05T01:33:51.073Z,15.36
2023-05-05T01:36:24.707Z,15.27
2023-05-05T01:38:58.236Z,15.13
2023-05-05T01:41:30.888Z,15.09
2023-05-05T01:44:02.669Z,14.93
2023-05-05T01:46:31.684Z,15.06
2023-05-05T01:49:01.454Z,15.23
2023-05-05T01:51:30.650Z,15.48
2023-05-05T01:54:01.083Z,15.52
2023-05-05T01:56:31.363Z,15.99
2023-05-05T01:59:02.328Z,16.10
2023-05-05T02:01:31.660Z,16.03
2023-05-05T02:04:03.217Z,16.19
2023-05-05T02:06:33.294Z,16.42
2023-05-05T02:09:02.385Z,16.52
2023-05-05T02:11:31.206Z,16.56
2023-05-05T02:14:01.577Z,16.66
2023-05-05T02:16:31.320Z,16.69
2023-05-05T02:19:05.148Z,16.67
2023-05-05T02:21:33.829Z,16.66
2023-05-05T02:24:02.459Z,16.76
2023-05-05T02:26:34.324Z,16.68
2023-05-05T02:29:07.521Z,16.61
2023-05-05T02:31:40.457Z,16.68
2023-05-05T02:34:11.011Z,16.62
2023-05-05T02:36:42.645Z,16.60
2023-05-05T02:39:15.833Z,16.55
2023-05-05T02:41:46.297Z,16.66
2023-05-05T02:44:16.038Z,16.66
2023-05-05T02:46:44.512Z,16.49
2023-05-05T02:49:13.919Z,16.57
2023-05-05T02:51:41.951Z,16.48
2023-05-05T02:54:10.159Z,16.55
2023-05-05T02:56:42.154Z,16.45
2023-05-05T02:59:17.218Z,16.45
2023-05-05T03:01:58.083Z,16.41
2023-05-05T03:04:33.048Z,16.31
2023-05-05T03:07:08.364Z,16.13
2023-05-05T03:09:41.403Z,16.03
2023-05-05T03:12:12.297Z,16.00
2023-05-05T03:14:43.400Z,15.87
2023-05-05T03:17:13.585Z,15.74
2023-05-05T03:19:45.432Z,15.77
2023-05-05T03:22:13.888Z,15.69
2023-05-05T03:24:42.042Z,15.56
2023-05-05T03:27:10.225Z,15.52
2023-05-05T03:29:38.332Z,15.64
2023-05-05T03:32:07.316Z,15.63
2023-05-05T03:34:37.409Z,15.64
2023-05-05T03:37:06.726Z,15.60
2023-05-05T03:39:34.663Z,15.57
2023-05-05T03:42:02.601Z,15.44
2023-05-05T03:44:30.634Z,15.30
2023-05-05T03:46:58.811Z,15.26
2023-05-05T03:49:26.839Z,15.22
2023-05-05T03:51:54.746Z,15.22
2023-05-05T03:54:24.079Z,15.37
2023-05-05T03:56:52.026Z,15.32
2023-05-05T03:59:19.976Z,15.31
2023-05-05T04:01:49.862Z,15.35
2023-05-05T04:04:17.950Z,15.25
2023-05-05T04:06:46.041Z,15.37
2023-05-05T04:09:14.659Z,15.34
2023-05-05T04:11:44.015Z,15.32
2023-05-05T04:14:12.693Z,15.22
2023-05-05T04:16:40.960Z,15.25
2023-05-05T04:19:09.595Z,15.07
2023-05-05T04:21:37.619Z,15.24
2023-05-05T04:24:06.267Z,15.33
2023-05-05T04:26:34.219Z,15.35
2023-05-05T04:29:03.549Z,15.27
2023-05-05T04:31:32.185Z,15.15
2023-05-05T04:34:00.221Z,15.16
2023-05-05T04:36:28.395Z,15.15
2023-05-05T04:38:56.403Z,14.76
2023-05-05T04:41:24.402Z,15.08
2023-05-05T04:43:52.332Z,14.97
2023-05-05T04:46:21.926Z,15.04
2023-05-05T04:48:49.898Z,14.99
2023-05-05T04:51:17.919Z,14.96
2023-05-05T04:53:46.215Z,14.43
2023-05-05T04:56:14.131Z,14.79
2023-05-05T04:58:42.080Z,14.67
2023-05-05T05:01:10.020Z,14.66
2023-05-05T05:03:39.441Z,14.72
2023-05-05T05:06:07.708Z,14.64
2023-05-05T05:08:35.677Z,14.60
2023-05-05T05:11:03.642Z,14.54
2023-05-05T05:13:31.656Z,14.54
2023-05-05T05:15:59.853Z,14.47
2023-05-05T05:18:27.908Z,14.53
2023-05-05T05:20:57.394Z,14.51
2023-05-05T05:23:25.547Z,14.50
2023-05-05T05:25:53.621Z,14.48
2023-05-05T05:28:21.620Z,14.50
2023-05-05T05:30:49.642Z,14.42
2023-05-05T05:33:17.568Z,14.62
2023-05-05T05:35:45.545Z,14.65
2023-05-05T05:38:14.946Z,14.69
2023-05-05T05:40:42.933Z,14.76
2023-05-05T05:43:10.896Z,14.61
2023-05-05T05:45:38.882Z,14.79
2023-05-05T05:48:07.155Z,14.87
2023-05-05T05:50:36.008Z,14.96
2023-05-05T05:53:03.948Z,15.08
2023-05-05T05:55:33.283Z,15.19
2023-05-05T05:58:01.397Z,15.23
2023-05-05T06:00:29.392Z,15.29
2023-05-05T06:02:57.393Z,14.99
2023-05-05T06:05:25.423Z,14.95
2023-05-05T06:07:53.371Z,15.00
2023-05-05T06:12:54.921Z,15.40
2023-05-05T06:15:22.942Z,15.60
2023-05-05T06:17:51.280Z,15.42
2023-05-05T06:20:19.484Z,15.50
2023-05-05T06:22:47.522Z,15.44
2023-05-05T06:25:15.700Z,15.43
2023-05-05T06:27:43.655Z,15.75
2023-05-05T06:30:14.834Z,15.86
2023-05-05T06:32:42.920Z,15.75
2023-05-05T06:35:11.337Z,16.04
2023-05-05T06:37:39.654Z,16.27
2023-05-05T06:40:09.588Z,16.19
2023-05-05T06:42:37.706Z,16.26
2023-05-05T06:45:06.243Z,16.39
2023-05-05T06:47:35.980Z,16.41
2023-05-05T06:50:03.979Z,16.49
2023-05-05T06:52:31.895Z,16.53
2023-05-05T06:54:59.908Z,16.55
2023-05-05T06:57:27.858Z,16.52
2023-05-05T06:59:55.914Z,16.64
2023-05-05T07:02:25.950Z,16.68
2023-05-05T07:04:56.699Z,16.68
2023-05-05T07:07:24.668Z,16.67
2023-05-05T07:09:52.610Z,16.63
2023-05-05T07:12:20.581Z,16.62
2023-05-05T07:14:48.551Z,16.59
2023-05-05T07:17:16.707Z,16.56
2023-05-05T07:19:44.618Z,16.67
2023-05-05T07:22:13.935Z,16.62
2023-05-05T07:24:41.876Z,16.72
2023-05-05T07:27:09.909Z,16.78
2023-05-05T07:29:37.805Z,16.83
2023-05-05T07:32:06.375Z,16.77
2023-05-05T07:34:34.710Z,16.84
2023-05-05T07:37:04.121Z,16.83
2023-05-05T07:39:34.107Z,16.87
2023-05-05T07:42:02.556Z,16.87
2023-05-05T07:44:30.682Z,16.94
2023-05-05T07:46:58.677Z,17.05
2023-05-05T07:49:26.879Z,17.30
2023-05-05T07:51:55.489Z,17.49
2023-05-05T07:54:23.494Z,17.54
2023-05-05T07:56:52.822Z,17.36
2023-05-05T07:59:20.834Z,17.55
2023-05-05T08:01:48.726Z,17.77
2023-05-05T08:04:16.712Z,17.81
2023-05-05T08:06:44.659Z,17.71
2023-05-05T08:09:12.834Z,17.79
2023-05-05T08:11:40.959Z,17.97
2023-05-05T08:14:10.297Z,18.20
2023-05-05T08:16:38.213Z,18.24
2023-05-05T08:19:12.076Z,18.21
2023-05-05T08:21:49.488Z,18.10
2023-05-05T08:24:17.575Z,18.12
2023-05-05T08:26:45.515Z,18.27
2023-05-05T08:29:14.876Z,18.41
2023-05-05T08:31:42.930Z,18.54
2023-05-05T08:34:10.930Z,18.54
2023-05-05T08:36:38.933Z,18.90
2023-05-05T08:39:07.296Z,18.81
2023-05-05T08:41:35.565Z,18.79
2023-05-05T08:44:03.575Z,18.96
2023-05-05T08:46:33.352Z,19.09
2023-05-05T08:49:03.859Z,19.28
2023-05-05T08:51:37.766Z,19.38
2023-05-05T08:54:08.124Z,19.19
2023-05-05T08:56:41.480Z,19.50
2023-05-05T08:59:11.237Z,19.65
2023-05-05T09:01:43.122Z,19.97
2023-05-05T09:04:11.882Z,20.04
2023-05-05T09:06:39.848Z,20.52
2023-05-05T09:09:08.584Z,20.71
2023-05-05T09:11:37.709Z,20.83
2023-05-05T09:14:05.641Z,20.74
2023-05-05T09:16:33.619Z,20.57
2023-05-05T09:19:06.388Z,20.78
2023-05-05T09:21:34.327Z,20.95
2023-05-05T09:24:10.092Z,21.72
2023-05-05T09:26:40.011Z,21.01
2023-05-05T09:31:37.880Z,21.38
2023-05-05T09:34:17.541Z,21.00
2023-05-05T09:36:47.943Z,21.20
2023-05-05T09:39:18.741Z,21.14
2023-05-05T09:41:47.339Z,20.85
2023-05-05T09:44:17.050Z,21.38
2023-05-05T09:46:52.271Z,21.22
2023-05-05T09:49:25.610Z,21.46
2023-05-05T09:51:54.259Z,21.79
2023-05-05T09:54:26.550Z,22.37
2023-05-05T09:56:54.666Z,21.90
2023-05-05T09:59:22.722Z,21.89
2023-05-05T10:01:51.342Z,21.73
2023-05-05T10:04:28.667Z,21.77
2023-05-05T10:06:57.753Z,21.02
2023-05-05T10:09:26.461Z,21.32
2023-05-05T10:11:55.146Z,20.78
2023-05-05T10:14:25.437Z,20.94
2023-05-05T10:16:54.994Z,21.23
2023-05-05T10:19:25.729Z,21.54
2023-05-05T10:22:00.593Z,21.92
2023-05-05T10:24:35.603Z,21.44
2023-05-05T10:27:09.154Z,21.81
2023-05-05T10:29:47.009Z,21.70
2023-05-05T10:32:51.922Z,21.58
2023-05-05T10:35:18.005Z,21.55
2023-05-05T10:37:48.799Z,21.86
2023-05-05T10:40:17.769Z,21.51
2023-05-05T10:42:46.020Z,21.38
2023-05-05T10:45:13.996Z,21.91
2023-05-05T10:47:42.115Z,21.81
2023-05-05T10:50:17.600Z,22.04
2023-05-05T10:52:57.151Z,22.30
2023-05-05T10:55:38.948Z,21.81
2023-05-05T10:58:06.960Z,22.32
2023-05-05T11:00:50.397Z,22.18
2023-05-05T11:03:22.568Z,22.62
2023-05-05T11:06:13.743Z,22.77
2023-05-05T11:08:44.682Z,23.11
2023-05-05T11:11:14.038Z,23.06
2023-05-05T11:13:42.324Z,23.14
2023-05-05T11:16:48.088Z,23.43
2023-05-05T11:19:55.992Z,23.05
2023-05-05T11:22:23.964Z,23.38
2023-05-05T11:24:53.411Z,23.12
2023-05-05T11:27:22.249Z,23.59
2023-05-05T11:30:17.802Z,24.22
2023-05-05T11:33:24.266Z,24.33
2023-05-05T11:35:58.726Z,24.74
2023-05-05T11:38:31.112Z,24.37
2023-05-05T11:41:06.919Z,24.56
2023-05-05T11:43:34.990Z,24.51
2023-05-05T11:46:12.274Z,25.19
2023-05-05T11:48:47.120Z,24.55
2023-05-05T11:51:16.276Z,24.62
2023-05-05T11:53:45.131Z,24.69
2023-05-05T11:56:19.002Z,24.41
2023-05-05T11:58:47.201Z,23.89
2023-05-05T12:01:15.622Z,23.86
2023-05-05T12:03:45.655Z,24.54
2023-05-05T12:06:14.479Z,24.77
2023-05-05T12:08:42.692Z,24.47
2023-05-05T12:11:11.648Z,24.97
2023-05-05T12:13:41.658Z,25.08
2023-05-05T12:16:11.150Z,25.66
2023-05-05T12:18:39.314Z,25.55
2023-05-05T12:21:16.065Z,25.65
2023-05-05T12:23:44.026Z,24.86
2023-05-05T12:26:25.992Z,23.64
2023-05-05T12:28:55.716Z,24.49
2023-05-05T12:31:23.740Z,25.23
2023-05-05T12:33:53.840Z,25.42
2023-05-05T12:36:21.835Z,25.20
2023-05-05T12:38:50.867Z,24.88
2023-05-05T12:41:21.298Z,24.84
2023-05-05T12:43:49.410Z,25.57
2023-05-05T12:46:18.728Z,26.29
2023-05-05T12:48:48.284Z,25.43
2023-05-05T12:51:23.130Z,25.78
2023-05-05T12:54:03.139Z,26.08
2023-05-05T12:56:36.122Z,26.16
2023-05-05T12:59:05.879Z,26.09
2023-05-05T13:01:35.754Z,26.64
2023-05-05T13:04:08.196Z,26.26
2023-05-05T13:06:36.232Z,26.65
2023-05-05T13:09:04.170Z,25.76
2023-05-05T13:11:35.776Z,26.59
2023-05-05T13:14:03.846Z,26.41
2023-05-05T13:16:32.014Z,26.26
2023-05-05T13:19:01.323Z,25.68
2023-05-05T13:21:29.261Z,25.17
2023-05-05T13:24:05.096Z,25.45
2023-05-05T13:26:45.178Z,25.45
2023-05-05T13:29:13.186Z,26.06
2023-05-05T13:31:41.673Z,25.93
2023-05-05T13:34:11.198Z,25.60
2023-05-05T13:36:39.286Z,25.33
2023-05-05T13:39:07.383Z,25.02
2023-05-05T13:41:35.381Z,25.09
2023-05-05T13:44:03.339Z,24.89
2023-05-05T13:46:31.364Z,25.09
2023-05-05T13:48:59.330Z,25.14
2023-05-05T13:51:28.607Z,24.82
2023-05-05T13:53:56.549Z,24.50
2023-05-05T13:56:26.677Z,23.99
2023-05-05T13:58:54.677Z,23.86
2023-05-05T14:01:22.782Z,23.81
2023-05-05T14:03:50.827Z,23.85
2023-05-05T14:06:18.836Z,23.93
2023-05-05T14:08:48.191Z,23.65
2023-05-05T14:11:18.144Z,23.47
2023-05-05T14:13:47.654Z,23.44
2023-05-05T14:16:15.853Z,23.23
2023-05-05T14:18:44.105Z,22.90
2023-05-05T14:21:12.268Z,22.11
2023-05-05T14:23:40.513Z,21.25
2023-05-05T14:26:10.006Z,20.52
2023-05-05T14:28:37.935Z,20.19
2023-05-05T14:31:06.220Z,19.75
2023-05-05T14:33:34.142Z,19.73
2023-05-05T14:36:02.316Z,18.11
2023-05-05T14:38:30.291Z,16.77
2023-05-05T14:40:58.291Z,16.34
2023-05-05T14:43:27.741Z,15.97
2023-05-05T14:45:58.368Z,15.96
2023-05-05T14:48:26.393Z,16.73
2023-05-05T14:50:54.326Z,16.68
2023-05-05T14:53:22.227Z,16.68
2023-05-05T14:55:50.155Z,16.40
2023-05-05T14:58:22.417Z,16.61
2023-05-05T15:00:52.934Z,16.38
2023-05-05T15:03:20.969Z,16.61
2023-05-05T15:05:48.965Z,16.80
2023-05-05T15:08:18.729Z,16.81
2023-05-05T15:10:46.723Z,17.27
2023-05-05T15:13:15.173Z,17.33
2023-05-05T15:15:43.280Z,17.29
2023-05-05T15:18:12.657Z,17.02
2023-05-05T15:20:40.605Z,16.70
2023-05-05T15:23:08.545Z,16.69
2023-05-05T15:25:36.580Z,16.34
2023-05-05T15:28:04.580Z,16.45
2023-05-05T15:30:32.584Z,16.64
2023-05-05T15:33:00.658Z,16.62
2023-05-05T15:35:30.011Z,16.25
2023-05-05T15:37:58.106Z,16.45
2023-05-05T15:40:26.260Z,16.71
2023-05-05T15:42:54.188Z,16.73
2023-05-05T15:45:22.164Z,16.75
2023-05-05T15:47:50.523Z,16.78
2023-05-05T15:50:18.533Z,16.73
2023-05-05T15:52:49.806Z,16.84
2023-05-05T15:55:18.035Z,16.94
2023-05-05T15:57:45.954Z,16.89
2023-05-05T16:00:15.300Z,17.06
2023-05-05T16:02:43.277Z,17.20
2023-05-05T16:05:11.543Z,17.13
2023-05-05T16:07:39.496Z,17.12
2023-05-05T16:10:10.429Z,17.06
2023-05-05T16:12:38.410Z,17.21
2023-05-05T16:15:07.674Z,17.32
2023-05-05T16:17:36.050Z,17.50
2023-05-05T16:20:04.220Z,17.91
2023-05-05T16:22:32.178Z,18.21
2023-05-05T16:25:00.196Z,18.20
2023-05-05T16:27:29.543Z,18.34
2023-05-05T16:29:59.562Z,18.42
2023-05-05T16:32:27.877Z,18.43
2023-05-05T16:34:55.925Z,18.61
2023-05-05T16:37:23.963Z,18.72
2023-05-05T16:39:51.835Z,18.73
2023-05-05T16:42:20.299Z,18.87
2023-05-05T16:44:49.630Z,18.94
2023-05-05T16:47:17.586Z,18.75
2023-05-05T16:49:45.518Z,18.65
2023-05-05T16:52:13.449Z,18.70
2023-05-05T16:54:41.701Z,18.88
2023-05-05T16:57:09.625Z,18.73
2023-05-05T16:59:37.592Z,18.31
2023-05-05T17:02:07.267Z,18.35
2023-05-05T17:04:35.323Z,18.06
2023-05-05T17:07:03.264Z,18.34
2023-05-05T17:09:31.225Z,18.22
2023-05-05T17:11:59.177Z,18.38
2023-05-05T17:14:27.490Z,18.48
2023-05-05T17:16:55.547Z,18.51
2023-05-05T17:19:24.892Z,18.58
2023-05-05T17:21:52.813Z,18.36
2023-05-05T17:24:20.868Z,18.34
2023-05-05T17:26:48.843Z,18.44
2023-05-05T17:29:19.867Z,18.52
2023-05-05T17:31:48.032Z,18.44
2023-05-05T17:34:16.021Z,18.51
2023-05-05T17:36:45.378Z,18.57
2023-05-05T17:39:13.758Z,18.50
2023-05-05T17:41:42.110Z,18.51
2023-05-05T17:44:10.041Z,18.36
2023-05-05T17:46:38.376Z,18.32
2023-05-05T17:49:06.321Z,18.25
2023-05-05T17:51:34.353Z,18.07
2023-05-05T17:54:03.691Z,17.93
2023-05-05T17:56:31.662Z,17.77
2023-05-05T17:58:59.711Z,17.64
2023-05-05T18:01:28.071Z,17.68
2023-05-05T18:03:56.055Z,17.68
2023-05-05T18:06:24.053Z,17.43
2023-05-05T18:08:52.015Z,17.26
2023-05-05T18:11:23.865Z,17.15
2023-05-05T18:13:51.790Z,17.23
2023-05-05T18:16:19.751Z,17.32
2023-05-05T18:18:47.796Z,17.33
2023-05-05T18:21:15.750Z,17.45
2023-05-05T18:23:43.800Z,17.34
2023-05-05T18:26:11.760Z,17.21
2023-05-05T18:28:41.140Z,17.14
2023-05-05T18:31:09.121Z,16.95
2023-05-05T18:33:37.099Z,16.92
2023-05-05T18:36:05.538Z,16.93
2023-05-05T18:38:33.578Z,16.83
2023-05-05T18:41:01.605Z,16.70
2023-05-05T18:43:29.538Z,16.51
2023-05-05T18:45:58.935Z,16.51
2023-05-05T18:48:27.627Z,16.48
2023-05-05T18:50:55.592Z,16.38
2023-05-05T18:53:23.510Z,16.28
2023-05-05T18:55:51.703Z,16.19
2023-05-05T18:58:20.009Z,16.20
2023-05-05T19:00:48.055Z,16.11
2023-05-05T19:03:17.460Z,15.96
2023-05-05T19:05:45.425Z,16.00
2023-05-05T19:08:13.375Z,15.90
2023-05-05T19:10:41.655Z,15.71
2023-05-05T19:13:10.904Z,15.80
2023-05-05T19:15:39.058Z,15.62
2023-05-05T19:18:07.233Z,15.61
2023-05-05T19:20:38.616Z,15.74
2023-05-05T19:23:07.198Z,15.69
2023-05-05T19:25:35.493Z,15.76
2023-05-05T19:28:03.504Z,15.75
2023-05-05T19:30:31.521Z,15.73
2023-05-05T19:32:59.551Z,15.69
2023-05-05T19:35:27.841Z,15.70
2023-05-05T19:37:57.445Z,15.54
2023-05-05T19:40:25.550Z,15.38
2023-05-05T19:42:53.478Z,15.47
2023-05-05T19:45:21.455Z,15.08
2023-05-05T19:47:49.440Z,15.10
2023-05-05T19:50:17.502Z,15.34
2023-05-05T19:52:45.533Z,15.30
2023-05-05T19:55:14.867Z,15.29
2023-05-05T19:57:42.847Z,15.22
2023-05-05T20:00:12.037Z,15.14
2023-05-05T20:02:40.187Z,15.21
2023-05-05T20:05:08.773Z,15.07
2023-05-05T20:07:36.729Z,15.04
2023-05-05T20:10:05.012Z,14.97
2023-05-05T20:12:34.450Z,15.05
2023-05-05T20:15:03.201Z,14.85
2023-05-05T20:17:31.182Z,14.85
2023-05-05T20:19:59.135Z,14.95
2023-05-05T20:22:27.074Z,15.13
2023-05-05T20:24:55.020Z,15.18
2023-05-05T20:27:23.213Z,15.13
2023-05-05T20:29:52.664Z,15.07
2023-05-05T20:32:20.988Z,15.09
2023-05-05T20:34:49.094Z,15.13
2023-05-05T20:37:17.089Z,15.11
2023-05-05T20:39:45.074Z,15.22
2023-05-05T20:42:13.127Z,15.22
2023-05-05T20:44:41.319Z,15.23
2023-05-05T20:47:10.938Z,15.14
2023-05-05T20:49:38.873Z,15.21
2023-05-05T20:52:06.924Z,15.24
2023-05-05T20:54:34.855Z,15.26
2023-05-05T20:57:03.135Z,15.09
2023-05-05T20:59:31.064Z,15.03
2023-05-05T21:01:59.033Z,15.17
2023-05-05T21:04:28.418Z,15.14
2023-05-05T21:06:57.440Z,15.14
2023-05-05T21:09:26.081Z,15.14
2023-05-05T21:11:54.166Z,15.15
2023-05-05T21:14:22.128Z,15.17
2023-05-05T21:16:50.226Z,15.14
2023-05-05T21:19:18.201Z,15.12
2023-05-05T21:21:47.478Z,15.01
2023-05-05T21:24:15.661Z,15.06
2023-05-05T21:26:44.310Z,15.05
2023-05-05T21:29:12.419Z,14.92
2023-05-05T21:31:41.508Z,14.82
2023-05-05T21:34:09.469Z,14.93
2023-05-05T21:36:38.709Z,14.86
2023-05-05T21:39:08.051Z,14.82
2023-05-05T21:41:36.001Z,14.96
2023-05-05T21:44:03.953Z,15.07
2023-05-05T21:46:31.883Z,15.10
2023-05-05T21:48:59.863Z,14.89
2023-05-05T21:51:27.813Z,14.83
2023-05-05T21:53:55.778Z,14.97
2023-05-05T21:56:25.101Z,14.98
2023-05-05T21:58:53.011Z,14.98
2023-05-05T22:01:21.164Z,15.01
2023-05-05T22:03:49.639Z,14.98
2023-05-05T22:06:18.557Z,14.95
2023-05-05T22:08:46.437Z,14.86
2023-05-05T22:11:14.901Z,14.90
2023-05-05T22:13:44.204Z,14.88
2023-05-05T22:16:13.097Z,14.87
2023-05-05T22:18:41.026Z,14.90
2023-05-05T22:21:08.962Z,14.56
2023-05-05T22:23:37.596Z,14.77
2023-05-05T22:26:05.838Z,14.32
2023-05-05T22:28:33.799Z,14.57
2023-05-05T22:31:03.266Z,14.39
2023-05-05T22:33:31.404Z,14.53
2023-05-05T22:35:59.327Z,14.59
2023-05-05T22:38:27.365Z,14.65
2023-05-05T22:40:55.430Z,14.63
2023-05-05T22:43:23.358Z,14.53
2023-05-05T22:45:51.399Z,14.38
2023-05-05T22:48:21.646Z,14.39
2023-05-05T22:50:49.584Z,14.17
2023-05-05T22:53:17.551Z,14.16
2023-05-05T22:55:45.713Z,14.28
2023-05-05T22:58:13.676Z,14.11
2023-05-05T23:00:41.623Z,14.28
2023-05-05T23:03:09.831Z,14.20
2023-05-05T23:05:39.162Z,14.15
2023-05-05T23:08:07.110Z,14.11
2023-05-05T23:10:35.070Z,14.12
2023-05-05T23:13:02.955Z,14.13
2023-05-05T23:15:31.233Z,14.14
2023-05-05T23:17:59.205Z,14.18
2023-05-05T23:20:27.263Z,14.28
2023-05-05T23:22:56.767Z,14.27
2023-05-05T23:25:24.732Z,14.25
2023-05-05T23:27:52.943Z,14.08
2023-05-05T23:30:21.031Z,14.00
2023-05-05T23:32:48.975Z,13.95
2023-05-05T23:35:16.991Z,13.90
2023-05-05T23:37:44.868Z,13.89
2023-05-05T23:40:14.311Z,13.79
2023-05-05T23:42:42.347Z,13.84
2023-05-05T23:45:11.704Z,13.79
2023-05-05T23:47:40.066Z,13.74
2023-05-05T23:50:09.411Z,13.79
2023-05-05T23:52:37.364Z,13.48
2023-05-05T23:55:06.186Z,13.58
2023-05-05T23:57:35.977Z,13.76
